Salisbury Heights, Pennsylvania
Current Conditions -  °F | °C
As of 1:55 AM on Friday 28 Nov 2014 (Local Time) from KMQS Reporting Station
Overcast Overcast  
Wind Chill: 23°   Ceiling: 5000
Heat Index: 32°   Visibility: 10mi
Dew Point: 28°   Wind: 12mph
Humidity: 87%   Direction: 300°WNW
Pressure: 30.11"   Gusts: NA
Location:  40.0073°N, 75.9953°W
Report Text: KMQS 280655Z AUTO 30010KT 10SM SCT036 OVC050 00/M02 A3011 RMK AO2
Loading
Personal Weather Stations






























Interactive Weather Map New forecast layout! Learn more

10-Day Weather Forecast

Advertisements
Track Severe Weather on mobile